Time;durP1;ratioP1;P1;durP2;ratioP2;P2;SDS_P1;SDS_P2;PMS_P1;PMS_P2;Temp;Humidity;BMP_temperature;BMP_pressure;BME280_temperature;BME280_humidity;BME280_pressure;Samples;Min_cycle;Max_cycle;Signal;HPM_P1;HPM_P2
2022/01/29 00:01:25;;;;;;;17.30;6.47;;;;;;;-0.62;66.88;101441.23;2101245;84;29957;-61
2022/01/29 00:04:27;;;;;;;22.85;7.28;;;;;;;-0.60;67.00;101441.27;2103795;84;32020;-62
2022/01/29 00:07:29;;;;;;;18.52;6.92;;;;;;;-0.59;67.26;101445.23;2103967;84;33548;-62
2022/01/29 00:10:31;;;;;;;23.67;8.15;;;;;;;-0.55;67.38;101439.58;2103130;84;29994;-61
2022/01/29 00:13:34;;;;;;;18.52;7.45;;;;;;;-0.54;67.37;101439.61;2071172;85;27692;-62
2022/01/29 00:16:37;;;;;;;23.90;8.40;;;;;;;-0.54;67.37;101435.67;2085638;84;29842;-60
2022/01/29 00:19:40;;;;;;;20.62;8.08;;;;;;;-0.53;67.24;101433.49;2100965;84;31559;-62
2022/01/29 00:22:42;;;;;;;15.83;6.03;;;;;;;-0.54;67.39;101429.50;2104299;84;33424;-59
2022/01/29 00:25:44;;;;;;;15.48;5.62;;;;;;;-0.54;67.44;101429.50;2103497;84;30209;-60
2022/01/29 00:28:46;;;;;;;21.42;6.33;;;;;;;-0.53;67.48;101424.70;2103983;84;28180;-60
2022/01/29 00:31:49;;;;;;;16.12;5.40;;;;;;;-0.53;67.56;101422.97;2104059;84;29994;-60
2022/01/29 00:34:50;;;;;;;15.70;6.10;;;;;;;-0.54;67.54;101415.03;2103479;84;32280;-59
2022/01/29 00:37:52;;;;;;;19.60;5.42;;;;;;;-0.53;67.70;101415.48;2103674;84;34201;-60
2022/01/29 00:40:56;;;;;;;21.70;6.37;;;;;;;-0.51;67.88;101414.66;2103268;83;30151;-60
2022/01/29 00:43:58;;;;;;;19.70;6.50;;;;;;;-0.49;67.97;101414.22;2146339;82;27759;-60
2022/01/29 00:46:59;;;;;;;15.35;6.37;;;;;;;-0.47;68.23;101411.63;2146116;82;29640;-60
2022/01/29 00:50:01;;;;;;;18.82;6.10;;;;;;;-0.44;68.36;101413.00;2140946;82;32146;-60
2022/01/29 00:53:03;;;;;;;21.25;6.90;;;;;;;-0.42;68.48;101406.01;2170757;81;34314;-60
2022/01/29 00:56:07;;;;;;;22.13;6.62;;;;;;;-0.38;68.57;101401.66;2144614;82;29352;-59
2022/01/29 00:59:09;;;;;;;21.90;6.60;;;;;;;-0.35;68.73;101403.02;2170965;82;27743;-59
2022/01/29 01:02:11;;;;;;;20.68;7.05;;;;;;;-0.33;68.91;101404.80;2169803;82;29203;-60
2022/01/29 01:05:12;;;;;;;16.97;6.85;;;;;;;-0.32;69.01;101405.25;2167108;82;32247;-60
2022/01/29 01:08:14;;;;;;;20.43;7.95;;;;;;;-0.31;69.19;101399.13;2171219;81;34199;-60
2022/01/29 01:11:16;;;;;;;21.45;9.38;;;;;;;-0.28;69.36;101391.69;2169624;82;30481;-60
2022/01/29 01:14:18;;;;;;;19.57;7.30;;;;;;;-0.28;69.46;101386.42;2153314;82;27653;-60
2022/01/29 01:17:20;;;;;;;22.10;7.67;;;;;;;-0.25;69.54;101386.91;2093435;84;28714;-61
2022/01/29 01:20:22;;;;;;;27.27;8.43;;;;;;;-0.26;69.68;101386.02;2172068;81;31034;-60
2022/01/29 01:23:24;;;;;;;24.10;9.00;;;;;;;-0.26;69.76;101387.33;2170173;81;33519;-61
2022/01/29 01:26:26;;;;;;;18.40;7.62;;;;;;;-0.27;69.83;101394.77;2153453;81;29377;-60
2022/01/29 01:29:28;;;;;;;28.50;8.85;;;;;;;-0.27;69.99;101379.42;2135028;82;27738;-60
2022/01/29 01:32:30;;;;;;;29.48;7.90;;;;;;;-0.31;70.12;101377.16;2132316;82;28620;-61
2022/01/29 01:35:39;;;;;;;18.05;7.85;;;;;;;-0.30;70.23;101376.30;2150781;81;32201;-61
2022/01/29 01:38:48;;;;;;;26.00;7.90;;;;;;;-0.33;70.29;101372.34;2138085;82;34642;-61
2022/01/29 01:41:55;;;;;;;23.77;7.53;;;;;;;-0.37;70.47;101367.44;2141689;82;29725;-60
2022/01/29 01:44:51;;;;;;;28.83;7.25;;;;;;;-0.39;70.61;101368.30;2168336;81;27693;-60
2022/01/29 01:47:53;;;;;;;27.17;7.28;;;;;;;-0.42;70.77;101359.03;2170556;81;30080;-59
2022/01/29 01:50:58;;;;;;;26.23;6.90;;;;;;;-0.44;70.91;101362.08;2123301;83;27604;-60
2022/01/29 01:54:04;;;;;;;25.72;7.20;;;;;;;-0.49;70.93;101355.45;2118299;83;27959;-59
2022/01/29 01:57:07;;;;;;;24.40;8.00;;;;;;;-0.51;71.10;101348.86;2107963;84;30201;-59
2022/01/29 02:00:11;;;;;;;32.50;7.50;;;;;;;-0.53;71.31;101340.47;2110010;83;27599;-60
2022/01/29 02:03:12;;;;;;;24.43;6.87;;;;;;;-0.54;71.41;101351.86;2108121;84;29452;-60
2022/01/29 02:06:14;;;;;;;26.05;6.85;;;;;;;-0.54;71.74;101358.44;2109818;84;31400;-60
2022/01/29 02:09:18;;;;;;;30.85;7.08;;;;;;;-0.55;71.77;101350.09;2107994;83;33491;-60
2022/01/29 02:12:20;;;;;;;28.70;7.22;;;;;;;-0.56;72.00;101333.43;2109788;83;29342;-60
2022/01/29 02:15:22;;;;;;;32.83;7.72;;;;;;;-0.55;72.04;101335.20;2108282;83;27685;-60
2022/01/29 02:18:24;;;;;;;33.18;7.37;;;;;;;-0.54;72.21;101336.06;2110117;83;29861;-60
2022/01/29 02:21:28;;;;;;;25.62;6.28;;;;;;;-0.53;72.39;101333.89;2107799;84;31819;-60
2022/01/29 02:24:29;;;;;;;27.85;7.03;;;;;;;-0.51;72.54;101326.48;2109974;84;33628;-59
2022/01/29 02:27:32;;;;;;;24.92;6.92;;;;;;;-0.49;72.72;101323.86;2107487;83;30756;-60
2022/01/29 02:30:36;;;;;;;29.85;7.42;;;;;;;-0.48;72.77;101320.36;2107836;84;27695;-59
2022/01/29 02:33:40;;;;;;;32.40;8.20;;;;;;;-0.47;72.90;101318.19;2084728;83;29040;-60
2022/01/29 02:36:43;;;;;;;27.13;6.77;;;;;;;-0.54;73.26;101285.64;2059284;84;32073;-60
2022/01/29 02:39:45;;;;;;;33.48;7.92;;;;;;;-0.54;73.26;101285.64;2072312;84;33691;-60
2022/01/29 02:42:46;;;;;;;32.78;9.08;;;;;;;-0.41;73.37;101291.91;2073587;84;30713;-60
2022/01/29 02:45:51;;;;;;;26.37;6.87;;;;;;;-0.38;73.54;101291.09;2073052;84;27664;-60
2022/01/29 02:48:54;;;;;;;28.70;6.78;;;;;;;-0.37;73.53;101292.41;2072425;84;29799;-60
2022/01/29 02:51:58;;;;;;;39.92;8.50;;;;;;;-0.36;73.67;101293.31;2121214;82;31389;-60
2022/01/29 02:54:59;;;;;;;34.25;9.05;;;;;;;-0.35;73.78;101282.78;2152229;82;33796;-60
2022/01/29 02:58:02;;;;;;;52.88;14.83;;;;;;;-0.33;73.94;101282.38;2153132;82;30867;-59
2022/01/29 03:01:06;;;;;;;59.40;14.25;;;;;;;-0.31;74.08;101283.28;2152220;82;27639;-59
2022/01/29 03:04:08;;;;;;;36.58;9.95;;;;;;;-0.29;74.06;101276.70;2153244;82;28633;-60
2022/01/29 03:07:10;;;;;;;34.27;7.03;;;;;;;-0.29;74.05;101283.28;2149300;82;32187;-59
2022/01/29 03:10:11;;;;;;;32.15;7.40;;;;;;;-0.28;74.19;101274.52;2133992;82;34154;-59
2022/01/29 03:13:15;;;;;;;30.23;6.08;;;;;;;-0.26;74.27;101272.78;2136631;82;29435;-60
2022/01/29 03:16:17;;;;;;;29.75;6.78;;;;;;;-0.22;74.37;101273.69;2134091;83;27791;-59
2022/01/29 03:19:20;;;;;;;37.28;7.33;;;;;;;-0.20;74.40;101270.23;2134432;83;28701;-59
2022/01/29 03:22:21;;;;;;;28.85;7.62;;;;;;;-0.17;74.49;101257.10;2150607;81;32281;-59
2022/01/29 03:25:23;;;;;;;35.05;8.23;;;;;;;-0.14;74.46;101245.70;2137000;83;34087;-60
2022/01/29 03:28:25;;;;;;;31.12;6.97;;;;;;;-0.12;74.54;101243.07;2137128;83;29450;-60
2022/01/29 03:31:28;;;;;;;37.42;9.30;;;;;;;-0.09;74.61;101239.16;2113917;82;27683;-60
2022/01/29 03:34:30;;;;;;;37.15;8.35;;;;;;;-0.07;74.58;101237.42;2139898;82;29093;-60
2022/01/29 03:37:32;;;;;;;36.85;8.88;;;;;;;-0.07;74.65;101231.70;2167934;81;31376;-60
2022/01/29 03:40:35;;;;;;;29.80;7.72;;;;;;;-0.06;74.66;101229.97;2156048;81;34168;-60
2022/01/29 03:43:45;;;;;;;28.00;6.92;;;;;;;-0.04;74.63;101223.84;2138144;82;29866;-60
2022/01/29 03:46:42;;;;;;;31.30;6.80;;;;;;;-0.04;74.61;101224.29;2111836;82;27806;-60
2022/01/29 03:49:44;;;;;;;41.42;7.70;;;;;;;-0.03;74.62;101218.16;2153282;82;29532;-60
2022/01/29 03:52:46;;;;;;;37.17;8.53;;;;;;;-0.05;74.63;101214.17;2142054;82;32192;-60
2022/01/29 03:55:48;;;;;;;33.40;7.70;;;;;;;-0.05;74.70;101216.80;2123081;83;33968;-60
2022/01/29 03:58:49;;;;;;;35.70;7.42;;;;;;;-0.06;74.68;101216.35;2121874;83;30638;-61
2022/01/29 04:01:52;;;;;;;28.83;8.23;;;;;;;-0.06;74.74;101212.41;2106704;83;27745;-59
2022/01/29 04:04:54;;;;;;;32.23;8.18;;;;;;;-0.07;74.81;101211.95;2106581;84;28479;-60
2022/01/29 04:07:56;;;;;;;31.30;6.92;;;;;;;-0.06;74.90;101216.35;2103104;84;31550;-60
2022/01/29 04:10:58;;;;;;;30.82;6.87;;;;;;;-0.04;74.94;101203.22;2103991;84;34122;-60
2022/01/29 04:14:00;;;;;;;26.25;6.25;;;;;;;-0.01;75.06;101207.20;2103701;84;30200;-60
2022/01/29 04:17:04;;;;;;;25.85;5.75;;;;;;;0.03;75.04;101198.43;2104273;84;27644;-60
2022/01/29 04:20:07;;;;;;;32.93;6.33;;;;;;;0.06;75.10;101193.19;2105698;84;28714;-61
2022/01/29 04:23:09;;;;;;;26.07;5.55;;;;;;;0.09;75.13;101177.83;2110768;83;31700;-60
2022/01/29 04:26:11;;;;;;;26.02;5.87;;;;;;;0.14;75.19;101178.76;2106667;83;34409;-59
2022/01/29 04:29:12;;;;;;;25.27;5.37;;;;;;;0.19;75.32;101173.52;2104095;84;29749;-60
2022/01/29 04:32:19;;;;;;;23.67;5.22;;;;;;;0.26;75.42;101177.98;2104164;84;27684;-60
2022/01/29 04:35:19;;;;;;;22.75;5.45;;;;;;;0.33;75.43;101171.89;2101906;84;28665;-61
2022/01/29 04:38:21;;;;;;;30.62;6.20;;;;;;;0.44;75.57;101171.93;2099201;84;32228;-60
2022/01/29 04:41:23;;;;;;;35.90;6.65;;;;;;;0.52;75.54;101166.28;2103582;84;34220;-60
2022/01/29 04:44:25;;;;;;;28.10;5.47;;;;;;;0.62;75.58;101159.31;2103677;84;30174;-61
2022/01/29 04:47:27;;;;;;;24.50;5.25;;;;;;;0.71;75.54;101157.16;2104582;84;27581;-61
2022/01/29 04:50:29;;;;;;;33.25;5.53;;;;;;;0.80;75.50;101157.64;2105192;84;29161;-60
2022/01/29 04:53:30;;;;;;;28.17;5.78;;;;;;;0.87;75.48;101142.27;2103678;84;31526;-60
2022/01/29 04:56:34;;;;;;;22.45;5.30;;;;;;;0.95;75.42;101151.53;2068385;84;34280;-60
2022/01/29 04:59:36;;;;;;;22.30;4.35;;;;;;;1.03;75.41;101148.50;2069531;84;29150;-60
2022/01/29 05:02:38;;;;;;;20.50;4.90;;;;;;;1.10;75.37;101136.20;2072226;84;27591;-60
2022/01/29 05:05:42;;;;;;;33.88;5.65;;;;;;;1.14;75.24;101130.93;2069899;84;29944;-60
2022/01/29 05:08:43;;;;;;;22.22;5.33;;;;;;;1.18;75.14;101135.34;2071525;84;31077;-60
2022/01/29 05:11:49;;;;;;;27.80;6.08;;;;;;;1.20;75.03;101127.00;2070044;84;34103;-60
2022/01/29 05:15:08;;;;;;;30.52;5.72;;;;;;;1.19;74.90;101117.31;2071357;84;30038;-61
2022/01/29 05:27:56;;;;;;;29.75;5.97;;;;;;;1.18;74.73;101108.95;2071643;84;34324;-60
2022/01/29 05:30:58;;;;;;;25.15;5.42;;;;;;;1.19;74.73;101105.86;2070112;84;29700;-60
2022/01/29 05:34:01;;;;;;;26.25;4.90;;;;;;;1.19;74.74;101089.61;2071626;84;27606;-60
2022/01/29 05:37:03;;;;;;;25.43;5.35;;;;;;;1.19;74.75;101084.33;2089037;84;29876;-60
2022/01/29 05:40:07;;;;;;;28.55;5.65;;;;;;;1.21;74.73;101095.77;2103553;84;31861;-60
2022/01/29 05:43:09;;;;;;;38.15;5.78;;;;;;;1.23;74.72;101090.94;2102353;84;33752;-61
2022/01/29 05:46:13;;;;;;;24.47;6.35;;;;;;;1.24;74.75;101081.69;2104063;84;29694;-61
2022/01/29 05:49:15;;;;;;;17.73;5.08;;;;;;;1.27;74.82;101069.82;2101440;84;27680;-60
2022/01/29 05:52:17;;;;;;;27.48;5.70;;;;;;;1.30;74.80;101055.73;2102714;84;29854;-60
2022/01/29 05:55:19;;;;;;;25.40;5.67;;;;;;;1.34;74.77;101041.21;2100479;84;32276;-60
2022/01/29 05:58:21;;;;;;;28.60;5.58;;;;;;;1.38;74.72;101029.34;2103290;84;32785;-60
2022/01/29 06:01:23;;;;;;;26.37;5.87;;;;;;;1.41;74.69;101014.38;2103214;84;30592;-60
2022/01/29 06:04:25;;;;;;;29.55;7.15;;;;;;;1.45;74.68;101020.55;2082022;84;27712;-60
2022/01/29 06:07:26;;;;;;;24.50;5.97;;;;;;;1.47;74.65;101013.52;2079027;84;28451;-60
2022/01/29 06:10:29;;;;;;;29.63;6.05;;;;;;;1.49;74.54;101016.58;2069961;84;31401;-60
2022/01/29 06:13:31;;;;;;;28.65;6.97;;;;;;;1.54;74.53;101011.75;2069893;84;34077;-60
2022/01/29 06:16:33;;;;;;;35.63;7.92;;;;;;;1.56;74.46;100994.14;2080462;84;30476;-60
2022/01/29 06:19:35;;;;;;;41.68;9.10;;;;;;;1.57;74.44;101002.05;2104466;84;27698;-60
2022/01/29 06:22:36;;;;;;;32.30;8.83;;;;;;;1.59;74.37;101001.61;2103459;84;29982;-60
2022/01/29 06:25:38;;;;;;;33.95;8.08;;;;;;;1.61;74.38;100990.61;2071177;84;31351;-60
2022/01/29 06:28:41;;;;;;;32.67;8.08;;;;;;;1.64;74.25;100998.95;2069215;84;33728;-60
2022/01/29 06:31:43;;;;;;;40.35;8.83;;;;;;;1.68;74.24;101008.64;2103931;84;28762;-61
2022/01/29 06:34:45;;;;;;;27.73;8.03;;;;;;;1.72;74.20;100993.66;2096289;84;27787;-61
2022/01/29 06:37:47;;;;;;;34.33;8.65;;;;;;;1.74;74.16;100995.87;2069514;84;29223;-61
2022/01/29 06:40:49;;;;;;;61.98;25.05;;;;;;;1.76;74.13;100977.80;2071333;84;32254;-61
2022/01/29 06:43:51;;;;;;;308.27;107.63;;;;;;;1.84;74.15;100971.63;2103772;84;33337;-61
2022/01/29 06:46:52;;;;;;;340.07;116.82;;;;;;;1.88;74.05;100971.61;2084432;84;30420;-61
2022/01/29 06:49:55;;;;;;;248.00;79.07;;;;;;;1.93;74.00;100968.52;2071053;84;27669;-61
2022/01/29 06:52:57;;;;;;;177.85;62.95;;;;;;;1.97;73.87;100960.13;2091815;84;28435;-60
2022/01/29 06:55:59;;;;;;;176.27;66.07;;;;;;;2.01;73.71;100955.28;2105279;84;31185;-60
2022/01/29 06:59:00;;;;;;;150.68;55.28;;;;;;;2.05;73.44;100947.78;2109046;83;34221;-61
2022/01/29 07:02:03;;;;;;;157.65;57.03;;;;;;;2.10;73.45;100948.63;2174038;81;30675;-60
2022/01/29 07:05:08;;;;;;;59.58;20.15;;;;;;;2.16;73.34;100949.03;2169114;81;27719;-61
2022/01/29 07:08:11;;;;;;;43.85;14.65;;;;;;;2.21;73.19;100947.27;2170732;81;29578;-60
2022/01/29 07:11:12;;;;;;;35.83;11.78;;;;;;;2.26;73.12;100942.84;2169934;81;31018;-61
2022/01/29 07:14:17;;;;;;;41.13;13.50;;;;;;;2.34;73.11;100939.26;2163268;82;34285;-61
2022/01/29 07:17:22;;;;;;;39.25;12.53;;;;;;;2.39;72.96;100927.80;2139862;82;29356;-61
2022/01/29 07:20:23;;;;;;;45.37;11.80;;;;;;;2.48;72.73;100931.27;2142483;82;27689;-61
2022/01/29 07:23:25;;;;;;;30.85;8.18;;;;;;;2.52;72.62;100924.61;2170378;82;28983;-60
2022/01/29 07:26:27;;;;;;;31.97;9.65;;;;;;;2.61;72.60;100931.61;2169042;82;32176;-60
2022/01/29 07:29:29;;;;;;;36.20;12.55;;;;;;;2.67;72.50;100933.33;2143456;82;32955;-61
2022/01/29 07:32:31;;;;;;;31.23;11.83;;;;;;;2.73;72.41;100933.30;2150724;81;29529;-60
2022/01/29 07:35:33;;;;;;;31.87;11.08;;;;;;;2.80;72.28;100918.26;2162539;82;27750;-60
2022/01/29 07:38:35;;;;;;;45.80;17.25;;;;;;;2.88;72.12;100921.74;2168335;82;29398;-60
2022/01/29 07:41:37;;;;;;;48.80;18.73;;;;;;;2.98;72.20;100923.41;2157261;82;32314;-61
2022/01/29 07:44:39;;;;;;;50.38;16.20;;;;;;;3.09;71.96;100922.43;2141977;82;34214;-60
2022/01/29 07:47:41;;;;;;;37.00;12.45;;;;;;;3.16;72.00;100912.23;2151767;82;30087;-60
2022/01/29 07:50:43;;;;;;;29.60;9.45;;;;;;;3.26;71.90;100920.52;2170055;82;27681;-61
2022/01/29 07:53:45;;;;;;;31.12;8.28;;;;;;;3.31;71.48;100914.73;2159995;81;29924;-61
2022/01/29 07:56:49;;;;;;;23.80;7.17;;;;;;;3.32;71.33;100913.84;2144697;82;27620;-60
2022/01/29 07:59:51;;;;;;;25.32;8.38;;;;;;;3.37;71.26;100910.28;2146575;82;34074;-60
2022/01/29 08:02:53;;;;;;;29.45;8.00;;;;;;;3.41;71.33;100901.39;2155662;82;30523;-60
2022/01/29 08:05:55;;;;;;;30.48;8.50;;;;;;;3.46;71.21;100898.25;2164184;82;27723;-60
2022/01/29 08:08:57;;;;;;;26.07;7.45;;;;;;;3.48;71.24;100897.33;2163120;82;29920;-60
2022/01/29 08:11:59;;;;;;;24.32;7.37;;;;;;;3.54;71.30;100883.17;2164104;82;31252;-60
2022/01/29 08:15:04;;;;;;;22.67;7.95;;;;;;;3.57;71.45;100874.30;2164511;82;34767;-60
2022/01/29 08:18:06;;;;;;;15.07;5.57;;;;;;;3.61;71.53;100865.43;2071884;85;29429;-61
2022/01/29 08:21:12;;;;;;;22.75;8.45;;;;;;;3.65;71.57;100862.72;2106271;84;27718;-61
2022/01/29 08:24:15;;;;;;;24.00;8.33;;;;;;;3.72;71.67;100863.52;2071959;84;27728;-61
2022/01/29 08:27:17;;;;;;;22.32;8.40;;;;;;;3.75;71.45;100848.91;2104743;84;32199;-61
2022/01/29 08:30:19;;;;;;;25.10;9.18;;;;;;;3.82;71.53;100851.47;2103457;84;34139;-61
2022/01/29 08:33:21;;;;;;;24.00;8.05;;;;;;;3.88;71.65;100848.75;2104272;84;30177;-61
2022/01/29 08:36:23;;;;;;;28.30;8.13;;;;;;;3.92;71.59;100843.37;2104896;84;27635;-61
2022/01/29 08:39:26;;;;;;;22.82;8.13;;;;;;;3.97;71.49;100827.87;2105443;84;29897;-61
2022/01/29 08:42:27;;;;;;;24.85;8.25;;;;;;;3.99;71.45;100820.31;2103047;84;31619;-61
2022/01/29 08:45:29;;;;;;;24.37;9.25;;;;;;;4.03;71.57;100818.52;2104723;84;33190;-61
2022/01/29 08:48:31;;;;;;;21.12;7.37;;;;;;;4.07;71.64;100813.14;2103387;84;30452;-60
2022/01/29 08:51:33;;;;;;;28.80;8.80;;;;;;;4.12;71.46;100801.59;2105802;84;27728;-60
2022/01/29 08:54:35;;;;;;;25.30;9.10;;;;;;;4.14;71.54;100806.44;2101749;84;29920;-62
2022/01/29 08:57:37;;;;;;;22.17;8.20;;;;;;;4.17;71.37;100800.63;2090090;84;31560;-60
2022/01/29 09:00:44;;;;;;;23.25;7.50;;;;;;;4.19;71.43;100793.96;2069481;84;34252;-61
2022/01/29 09:03:53;;;;;;;28.07;8.10;;;;;;;4.24;71.44;100790.80;2076581;84;29362;-62
2022/01/29 09:06:54;;;;;;;20.88;8.50;;;;;;;4.30;71.42;100778.78;2103891;84;27536;-62
2022/01/29 09:09:56;;;;;;;30.82;11.70;;;;;;;4.32;71.50;100774.30;2097977;84;28742;-61
2022/01/29 09:12:58;;;;;;;53.20;19.07;;;;;;;4.41;71.72;100772.84;2069777;84;31228;-62
2022/01/29 09:16:00;;;;;;;28.12;13.38;;;;;;;4.49;71.49;100773.14;2071342;84;34165;-61
2022/01/29 09:19:02;;;;;;;37.75;11.63;;;;;;;4.54;71.31;100769.97;2100626;84;30527;-61
2022/01/29 09:22:06;;;;;;;34.67;16.27;;;;;;;4.61;71.33;100768.09;2085984;84;27807;-61
2022/01/29 09:25:09;;;;;;;51.20;19.93;;;;;;;4.64;71.21;100762.73;2097194;84;29843;-60
2022/01/29 09:28:13;;;;;;;43.92;16.02;;;;;;;4.69;71.41;100754.25;2156606;82;30828;-61
2022/01/29 09:31:15;;;;;;;34.58;12.13;;;;;;;4.74;71.06;100744.40;2126064;83;32963;-62
2022/01/29 09:34:17;;;;;;;34.92;10.05;;;;;;;4.77;71.11;100743.02;2094064;85;30118;-60
2022/01/29 09:37:20;;;;;;;27.87;9.78;;;;;;;4.80;70.81;100736.34;2072170;84;28146;-63
2022/01/29 09:40:24;;;;;;;34.33;10.68;;;;;;;4.79;70.89;100731.93;2117277;83;29562;-62
2022/01/29 09:43:27;;;;;;;24.02;6.72;;;;;;;4.78;70.61;100731.50;2143718;83;34721;-62
2022/01/29 09:46:30;;;;;;;27.98;9.38;;;;;;;4.79;70.83;100727.09;2131011;83;33679;-62
2022/01/29 09:49:34;;;;;;;29.12;11.45;;;;;;;4.77;70.81;100712.97;2128010;83;29340;-61
2022/01/29 09:52:42;;;;;;;32.63;11.68;;;;;;;4.80;70.77;100713.78;2112452;83;27680;-61
2022/01/29 09:55:47;;;;;;;28.92;11.88;;;;;;;4.84;70.84;100706.19;2096296;83;30958;-62
2022/01/29 09:58:50;;;;;;;31.52;10.65;;;;;;;4.93;71.03;100702.91;2122541;83;31002;-62
2022/01/29 10:01:52;;;;;;;24.60;11.80;;;;;;;4.98;70.88;100698.39;2129812;83;33104;-63
2022/01/29 10:04:56;;;;;;;44.88;19.52;;;;;;;5.04;71.08;100696.06;2100990;83;29363;-63
2022/01/29 10:08:02;;;;;;;30.40;14.10;;;;;;;5.09;71.09;100691.55;2096581;83;27750;-64
2022/01/29 10:11:04;;;;;;;25.32;10.95;;;;;;;5.08;70.89;100686.67;2121647;83;28681;-61
2022/01/29 10:14:06;;;;;;;32.38;12.70;;;;;;;5.05;70.65;100680.09;2089534;83;31365;-64
2022/01/29 10:17:08;;;;;;;29.30;10.60;;;;;;;5.08;70.96;100672.06;2139927;83;34199;-66
2022/01/29 10:20:24;;;;;;;21.17;9.40;;;;;;;5.13;70.92;100660.04;2121440;83;29491;-64
2022/01/29 10:23:30;;;;;;;34.53;15.98;;;;;;;5.10;70.68;100649.48;2104971;84;28375;-64
2022/01/29 10:26:36;;;;;;;31.87;14.83;;;;;;;5.06;70.70;100643.33;2099534;84;28679;-65
2022/01/29 10:29:39;;;;;;;32.28;16.67;;;;;;;5.06;71.03;100649.97;2078024;84;31994;-66
2022/01/29 10:32:40;;;;;;;26.02;12.98;;;;;;;5.06;71.17;100640.67;2098916;84;32990;-64
2022/01/29 10:35:44;;;;;;;24.80;14.28;;;;;;;5.05;71.05;100636.74;2101595;83;29406;-63
2022/01/29 10:38:51;;;;;;;29.40;17.10;;;;;;;4.99;71.02;100631.11;2129881;83;27875;-65
2022/01/29 10:41:52;;;;;;;25.10;15.15;;;;;;;4.98;71.12;100628.03;2115899;83;28664;-63
2022/01/29 10:45:04;;;;;;;32.42;18.45;;;;;;;4.94;70.95;100628.56;2097384;84;31017;-62
2022/01/29 10:48:06;;;;;;;30.48;15.85;;;;;;;4.92;71.18;100625.50;2096251;84;33234;-64
2022/01/29 10:51:13;;;;;;;27.32;15.63;;;;;;;4.89;71.41;100619.81;2102233;83;30531;-62
2022/01/29 10:54:17;;;;;;;23.27;14.00;;;;;;;4.90;71.39;100608.28;2161822;81;27561;-64
2022/01/29 10:57:19;;;;;;;25.23;13.73;;;;;;;4.89;71.46;100605.20;2181992;80;29592;-64
2022/01/29 11:00:24;;;;;;;21.77;11.88;;;;;;;4.85;71.44;100591.14;2180839;81;32239;-64
2022/01/29 11:03:26;;;;;;;;;;;;;;;4.82;71.53;100595.17;2184450;81;34032;-63
2022/01/29 11:06:34;;;;;;;18.95;10.95;;;;;;;4.81;71.64;100586.79;2181747;80;29341;-64
2022/01/29 11:09:34;;;;;;;20.15;10.68;;;;;;;4.78;71.81;100574.05;2166499;81;27804;-64
2022/01/29 11:12:38;;;;;;;21.82;13.40;;;;;;;4.79;71.95;100572.67;2166631;81;28636;-67
2022/01/29 11:15:40;;;;;;;30.95;17.00;;;;;;;4.80;71.96;100568.26;2181527;81;31848;-63
2022/01/29 11:18:42;;;;;;;33.08;22.22;;;;;;;4.81;71.99;100563.34;2177796;80;33737;-65
2022/01/29 11:21:48;;;;;;;37.98;24.43;;;;;;;4.79;71.91;100551.44;2169342;80;29313;-63
2022/01/29 11:24:59;;;;;;;45.88;22.80;;;;;;;4.78;72.07;100546.17;2142487;82;27687;-65
2022/01/29 11:28:15;;;;;;;28.65;14.30;;;;;;;4.76;71.95;100542.68;2172051;80;29854;-64
2022/01/29 11:31:18;;;;;;;;;;;;;;;4.73;72.06;100520.18;2183339;80;32153;-63
2022/01/29 11:34:20;;;;;;;26.82;15.28;;;;;;;4.71;72.18;100508.28;2172015;80;33582;-64
2022/01/29 11:37:42;;;;;;;23.25;13.78;;;;;;;4.65;72.06;100499.13;2173267;80;29332;-63
2022/01/29 11:41:02;;;;;;;19.12;12.82;;;;;;;4.61;72.05;100494.78;2168769;82;28232;-64
2022/01/29 11:44:25;;;;;;;23.25;12.88;;;;;;;4.52;72.01;100495.41;2146931;82;28760;-66
2022/01/29 11:47:38;;;;;;;23.27;13.30;;;;;;;4.48;72.23;100484.44;2138453;82;31860;-63
2022/01/29 11:50:43;;;;;;;22.40;12.40;;;;;;;4.45;72.26;100466.41;2159833;81;32566;-64
2022/01/29 11:53:53;;;;;;;25.75;14.87;;;;;;;4.39;72.25;100460.75;2132898;83;34731;-64
2022/01/29 11:57:14;;;;;;;19.90;13.18;;;;;;;4.31;72.33;100461.38;2171652;81;27720;-65
2022/01/29 12:00:37;;;;;;;17.57;11.08;;;;;;;4.26;72.37;100458.83;2167783;81;28696;-68
2022/01/29 12:03:45;;;;;;;27.13;18.23;;;;;;;4.19;72.41;100450.57;2172713;81;31053;-67
2022/01/29 12:07:19;;;;;;;36.77;24.60;;;;;;;4.15;72.52;100447.55;2158918;80;33846;-66
2022/01/29 12:10:16;;;;;;;28.92;18.32;;;;;;;4.06;72.37;100432.27;2151393;81;30141;-66
2022/01/29 12:13:19;;;;;;;22.20;14.45;;;;;;;3.97;72.36;100423.20;2140498;82;27736;-66
2022/01/29 12:16:54;;;;;;;22.90;14.10;;;;;;;3.86;72.32;100417.22;2170931;82;29443;-66
2022/01/29 12:19:59;;;;;;;23.45;16.42;;;;;;;3.82;72.54;100418.17;2165111;82;31990;-67
2022/01/29 12:23:05;;;;;;;22.00;15.28;;;;;;;3.76;72.70;100416.53;2137211;82;33849;-68
2022/01/29 12:26:08;;;;;;;20.62;14.10;;;;;;;3.77;72.86;100406.35;2095352;85;29342;-67
2022/01/29 12:29:10;;;;;;;24.50;15.85;;;;;;;3.73;72.82;100393.63;2137473;83;27803;-67
2022/01/29 12:32:12;;;;;;;26.57;15.30;;;;;;;3.72;72.90;100387.05;2168151;82;29317;-67
2022/01/29 12:35:14;;;;;;;18.82;12.47;;;;;;;3.71;73.05;100376.88;2171037;82;31833;-67
2022/01/29 12:38:19;;;;;;;22.73;13.75;;;;;;;3.70;73.09;100367.66;2171004;81;32944;-67
2022/01/29 12:41:26;;;;;;;15.75;10.23;;;;;;;3.68;73.23;100354.88;2162352;82;30184;-67
2022/01/29 12:44:27;;;;;;;13.15;10.15;;;;;;;3.68;73.38;100339.84;2153924;82;27656;-67
2022/01/29 12:47:32;;;;;;;16.87;10.90;;;;;;;3.68;73.50;100341.64;2153490;82;28884;-67
2022/01/29 12:50:34;;;;;;;17.42;11.63;;;;;;;3.71;73.66;100329.66;2116715;84;31028;-67
2022/01/29 12:53:39;;;;;;;22.20;11.22;;;;;;;3.75;73.86;100328.23;2113849;84;32972;-67
2022/01/29 12:56:41;;;;;;;17.48;12.37;;;;;;;3.77;73.97;100318.48;2108651;84;29359;-67
2022/01/29 12:59:43;;;;;;;103.05;58.38;;;;;;;3.78;73.97;100307.41;2106558;84;28125;-67
2022/01/29 13:02:46;;;;;;;37.60;25.50;;;;;;;3.79;74.12;100299.45;2106489;84;28683;-67
2022/01/29 13:05:47;;;;;;;25.35;15.85;;;;;;;3.85;74.22;100297.55;2107978;84;31078;-66
2022/01/29 13:08:49;;;;;;;25.70;16.87;;;;;;;3.91;74.34;100275.75;2108248;83;32394;-67
2022/01/29 13:12:00;;;;;;;22.65;14.80;;;;;;;3.97;74.41;100270.79;2118742;83;29383;-67
2022/01/29 13:15:02;;;;;;;39.23;22.73;;;;;;;4.06;74.53;100266.59;2178707;81;27660;-66
2022/01/29 13:18:07;;;;;;;27.02;17.02;;;;;;;4.17;74.61;100261.47;2173721;81;29502;-65
2022/01/29 13:21:09;;;;;;;26.68;17.52;;;;;;;4.28;74.63;100249.29;2170912;82;31122;-65
2022/01/29 13:24:32;;;;;;;29.18;18.92;;;;;;;4.37;74.59;100241.98;2170692;82;33770;-64
2022/01/29 13:27:37;;;;;;;28.40;16.23;;;;;;;4.41;74.47;100229.06;2160918;81;30089;-63
2022/01/29 13:30:40;;;;;;;23.55;15.90;;;;;;;4.49;74.59;100216.05;2103271;84;27696;-66
2022/01/29 13:33:44;;;;;;;18.48;11.05;;;;;;;4.58;74.55;100214.49;2104652;84;29572;-65
2022/01/29 13:36:47;;;;;;;17.30;11.80;;;;;;;4.62;74.38;100202.01;2107290;84;31020;-65
2022/01/29 13:39:49;;;;;;;19.80;13.13;;;;;;;4.63;74.36;100195.80;2131717;83;33823;-65
2022/01/29 13:42:57;;;;;;;16.62;11.05;;;;;;;4.66;74.44;100189.94;2174353;81;29530;-65
2022/01/29 13:46:08;;;;;;;12.25;8.40;;;;;;;4.67;74.36;100181.06;2172699;81;27661;-65
2022/01/29 13:49:11;;;;;;;17.42;12.68;;;;;;;4.67;74.43;100162.97;2171492;81;28708;-65
2022/01/29 13:52:15;;;;;;;11.55;8.48;;;;;;;4.69;74.45;100151.86;2139582;81;31043;-66
2022/01/29 13:55:17;;;;;;;13.95;6.97;;;;;;;4.67;74.41;100139.08;2175148;81;33733;-65
2022/01/29 13:58:18;;;;;;;10.60;7.55;;;;;;;4.68;74.50;100145.66;2172546;81;29369;-66
2022/01/29 14:01:57;;;;;;;14.55;9.35;;;;;;;4.70;74.55;100127.92;2172666;81;28326;-66
2022/01/29 14:05:05;;;;;;;14.90;10.53;;;;;;;4.73;74.64;100127.42;2172788;80;28850;-64
2022/01/29 14:08:23;;;;;;;16.82;10.40;;;;;;;4.73;74.65;100116.34;2171747;81;32123;-64
2022/01/29 14:11:21;;;;;;;22.32;15.03;;;;;;;4.75;74.73;100104.37;2170332;80;33786;-66
2022/01/29 14:14:26;;;;;;;14.10;10.23;;;;;;;4.73;74.81;100087.62;2172176;81;29305;-64
2022/01/29 14:17:33;;;;;;;21.03;9.47;;;;;;;4.71;74.72;100082.37;2172796;81;28127;-65